Airfield :
LOGIN :

Register | Disclaimer

   EN    FR    IT 

 










Legend :    VFR   Marginal VFR   IFR   Intensive IFR   Very Intensive IFR
Visi :
Ceiling :
>= 8 km
>= 3000ft
5 to 8 km
1000 to 3000 ft
1500m to 5 km
500 to 1000 ft
800 to 1500m
200 to 500 ft
< 800m
< 200 ft
Symbols :   Thunderstorms  Fog  Heavy snow  Heavy precipitations  Wind > 20 kt
SIGMETs :     Misc.  Thunderstorms  Icing  Turbulence  Mountain Waves  Volcanic Ashes






- Airport Elevation : 287 ft


LFRL - Lanveoc Poulmic

CURRENT METAR :
  • 160900Z AUTO 22014KT 2500 -DZ BR OVC002 10/10 Q1022

EXPIRED METARs :
  • 160830Z AUTO 22016KT 3400 -DZ BR OVC002 10/10 Q1022
  • 160800Z AUTO 22016KT 3200 DZ BR OVC003 10/09 Q1023
  • 160730Z AUTO 21016KT 4000 -DZ BR OVC003 09/09 Q1023
  • 160700Z AUTO 21013KT 3500 DZ BR OVC004 09/09 Q1023
  • 160630Z AUTO 21016KT 3500 -DZ BR BKN005 OVC014 09/08 Q1024
  • 160600Z AUTO 21017KT 3600 -DZ BR BKN009 BKN014 OVC022 09/08 Q1024

TAF TAF LFRL
Valid from the 15 at 12:00 until the 16 at 12:00 UTC


151100Z 1512/1612 VRB03KT CAVOK
TEMPO 1512/1516 BKN014
BECMG 1520/1522 16010KT
BECMG 1601/1603 20015G25KT 3000 RADZ BKN004 OVC012
TEMPO 1606/1612 1000 BKN002



MET'MAP, your aeronautical weather chart ! - Copyright ORBIFLY December 2007 - Disclaimer

ORBIFLY MET'MAP TEAM :

Programming & Development : Alexandra Zaïnal
Concept & original design : Baudouin d'Aumeries
Assistance for programming : Marc-Olivier Méhu
Technical & hardware support : Manuel Goepfert

Contact : metmap@orbifly.com




SOURCES & CREDITS :

   NOAA